sensor_id;sensor_type;location;lat;lon;timestamp;P1;durP1;ratioP1;P2;durP2;ratioP2
7703;SDS011;3894;49.700;10.770;2023-03-23T02:50:21;5.03;;;1.63;;
7703;SDS011;3894;49.700;10.770;2023-03-23T02:52:50;4.82;;;1.65;;
7703;SDS011;3894;49.700;10.770;2023-03-23T02:55:27;5.45;;;1.92;;
7703;SDS011;3894;49.700;10.770;2023-03-23T02:58:05;4.80;;;1.60;;
7703;SDS011;3894;49.700;10.770;2023-03-23T03:00:31;6.60;;;1.92;;
7703;SDS011;3894;49.700;10.770;2023-03-23T03:02:57;4.45;;;2.03;;
7703;SDS011;3894;49.700;10.770;2023-03-23T03:08:28;7.13;;;1.77;;
7703;SDS011;3894;49.700;10.770;2023-03-23T03:16:00;7.20;;;1.77;;
7703;SDS011;3894;49.700;10.770;2023-03-23T03:18:44;4.53;;;1.75;;
7703;SDS011;3894;49.700;10.770;2023-03-23T03:21:21;7.28;;;1.80;;
7703;SDS011;3894;49.700;10.770;2023-03-23T03:23:53;5.88;;;1.90;;
7703;SDS011;3894;49.700;10.770;2023-03-23T03:26:25;5.90;;;1.75;;
7703;SDS011;3894;49.700;10.770;2023-03-23T03:28:58;5.68;;;1.70;;
7703;SDS011;3894;49.700;10.770;2023-03-23T03:31:29;6.00;;;2.13;;
7703;SDS011;3894;49.700;10.770;2023-03-23T03:34:02;4.75;;;1.70;;
7703;SDS011;3894;49.700;10.770;2023-03-23T03:36:33;5.20;;;1.65;;
7703;SDS011;3894;49.700;10.770;2023-03-23T03:39:07;6.25;;;2.00;;
7703;SDS011;3894;49.700;10.770;2023-03-23T03:41:42;5.80;;;1.90;;
7703;SDS011;3894;49.700;10.770;2023-03-23T03:44:12;5.82;;;1.80;;
7703;SDS011;3894;49.700;10.770;2023-03-23T03:46:44;4.93;;;1.67;;
7703;SDS011;3894;49.700;10.770;2023-03-23T03:49:14;6.82;;;1.73;;
7703;SDS011;3894;49.700;10.770;2023-03-23T03:51:47;5.18;;;2.15;;
7703;SDS011;3894;49.700;10.770;2023-03-23T03:54:15;5.40;;;1.65;;
7703;SDS011;3894;49.700;10.770;2023-03-23T03:56:48;5.88;;;1.80;;
7703;SDS011;3894;49.700;10.770;2023-03-23T03:59:22;5.35;;;1.60;;
7703;SDS011;3894;49.700;10.770;2023-03-23T04:01:48;5.18;;;1.83;;
7703;SDS011;3894;49.700;10.770;2023-03-23T04:04:24;4.57;;;1.35;;
7703;SDS011;3894;49.700;10.770;2023-03-23T04:06:58;5.13;;;1.45;;
7703;SDS011;3894;49.700;10.770;2023-03-23T04:09:27;4.88;;;1.30;;
7703;SDS011;3894;49.700;10.770;2023-03-23T04:11:58;4.47;;;1.38;;
7703;SDS011;3894;49.700;10.770;2023-03-23T04:14:33;4.47;;;1.48;;
7703;SDS011;3894;49.700;10.770;2023-03-23T04:17:02;10.45;;;2.20;;
7703;SDS011;3894;49.700;10.770;2023-03-23T04:19:32;4.25;;;1.10;;
7703;SDS011;3894;49.700;10.770;2023-03-23T04:22:04;5.18;;;1.45;;
7703;SDS011;3894;49.700;10.770;2023-03-23T04:24:41;5.57;;;1.48;;
7703;SDS011;3894;49.700;10.770;2023-03-23T04:27:22;5.15;;;1.52;;
7703;SDS011;3894;49.700;10.770;2023-03-23T04:29:55;5.40;;;2.35;;
7703;SDS011;3894;49.700;10.770;2023-03-23T04:32:23;7.18;;;1.92;;
7703;SDS011;3894;49.700;10.770;2023-03-23T04:34:56;6.32;;;1.55;;
7703;SDS011;3894;49.700;10.770;2023-03-23T04:37:30;5.28;;;2.30;;
7703;SDS011;3894;49.700;10.770;2023-03-23T04:39:56;5.47;;;2.47;;
7703;SDS011;3894;49.700;10.770;2023-03-23T04:42:29;6.65;;;2.00;;
7703;SDS011;3894;49.700;10.770;2023-03-23T04:44:56;5.72;;;1.92;;
7703;SDS011;3894;49.700;10.770;2023-03-23T04:47:24;5.18;;;2.45;;
7703;SDS011;3894;49.700;10.770;2023-03-23T04:49:54;4.60;;;1.73;;
7703;SDS011;3894;49.700;10.770;2023-03-23T04:52:27;4.05;;;1.52;;
7703;SDS011;3894;49.700;10.770;2023-03-23T04:54:56;5.13;;;1.40;;
7703;SDS011;3894;49.700;10.770;2023-03-23T04:57:25;3.63;;;1.13;;
7703;SDS011;3894;49.700;10.770;2023-03-23T04:59:54;4.18;;;0.80;;
7703;SDS011;3894;49.700;10.770;2023-03-23T05:02:33;4.03;;;1.05;;
7703;SDS011;3894;49.700;10.770;2023-03-23T05:05:20;3.42;;;1.00;;
7703;SDS011;3894;49.700;10.770;2023-03-23T05:07:56;4.40;;;1.73;;
7703;SDS011;3894;49.700;10.770;2023-03-23T05:10:24;3.55;;;1.15;;
7703;SDS011;3894;49.700;10.770;2023-03-23T05:12:58;3.95;;;0.57;;
7703;SDS011;3894;49.700;10.770;2023-03-23T05:15:30;3.80;;;0.77;;
7703;SDS011;3894;49.700;10.770;2023-03-23T05:17:58;4.32;;;0.90;;
7703;SDS011;3894;49.700;10.770;2023-03-23T05:20:38;2.78;;;0.60;;
7703;SDS011;3894;49.700;10.770;2023-03-23T05:23:07;3.95;;;0.88;;
7703;SDS011;3894;49.700;10.770;2023-03-23T05:25:38;3.70;;;0.68;;
7703;SDS011;3894;49.700;10.770;2023-03-23T05:28:10;3.17;;;0.65;;
7703;SDS011;3894;49.700;10.770;2023-03-23T05:30:42;3.58;;;0.75;;
7703;SDS011;3894;49.700;10.770;2023-03-23T05:33:10;4.22;;;1.00;;
7703;SDS011;3894;49.700;10.770;2023-03-23T05:35:36;3.97;;;0.80;;
7703;SDS011;3894;49.700;10.770;2023-03-23T05:38:02;4.60;;;0.85;;
7703;SDS011;3894;49.700;10.770;2023-03-23T05:40:33;3.30;;;1.17;;
7703;SDS011;3894;49.700;10.770;2023-03-23T05:45:38;3.53;;;1.75;;
7703;SDS011;3894;49.700;10.770;2023-03-23T05:48:04;3.95;;;1.08;;
7703;SDS011;3894;49.700;10.770;2023-03-23T05:50:30;3.58;;;0.82;;
7703;SDS011;3894;49.700;10.770;2023-03-23T05:52:55;4.20;;;1.35;;
7703;SDS011;3894;49.700;10.770;2023-03-23T05:55:22;5.03;;;0.73;;
7703;SDS011;3894;49.700;10.770;2023-03-23T05:57:48;3.20;;;0.80;;
7703;SDS011;3894;49.700;10.770;2023-03-23T06:00:13;3.95;;;0.70;;
7703;SDS011;3894;49.700;10.770;2023-03-23T06:02:40;3.35;;;0.80;;
7703;SDS011;3894;49.700;10.770;2023-03-23T06:05:08;4.32;;;0.90;;
7703;SDS011;3894;49.700;10.770;2023-03-23T06:07:35;3.63;;;0.73;;
7703;SDS011;3894;49.700;10.770;2023-03-23T06:10:02;2.75;;;0.50;;
7703;SDS011;3894;49.700;10.770;2023-03-23T06:12:32;3.60;;;0.70;;
7703;SDS011;3894;49.700;10.770;2023-03-23T06:14:58;3.78;;;1.15;;
7703;SDS011;3894;49.700;10.770;2023-03-23T06:17:23;4.15;;;1.00;;
7703;SDS011;3894;49.700;10.770;2023-03-23T06:19:49;4.07;;;0.98;;
7703;SDS011;3894;49.700;10.770;2023-03-23T06:22:15;2.88;;;0.60;;
7703;SDS011;3894;49.700;10.770;2023-03-23T06:24:41;3.85;;;0.98;;
7703;SDS011;3894;49.700;10.770;2023-03-23T06:27:07;4.68;;;1.08;;
7703;SDS011;3894;49.700;10.770;2023-03-23T06:29:34;4.47;;;1.63;;
7703;SDS011;3894;49.700;10.770;2023-03-23T06:32:00;4.53;;;0.95;;
7703;SDS011;3894;49.700;10.770;2023-03-23T06:34:27;3.95;;;1.15;;
7703;SDS011;3894;49.700;10.770;2023-03-23T06:36:53;3.80;;;0.95;;
7703;SDS011;3894;49.700;10.770;2023-03-23T06:39:18;4.63;;;1.48;;
7703;SDS011;3894;49.700;10.770;2023-03-23T06:41:44;4.60;;;1.00;;
7703;SDS011;3894;49.700;10.770;2023-03-23T06:44:10;5.00;;;1.35;;
7703;SDS011;3894;49.700;10.770;2023-03-23T06:46:38;4.60;;;1.20;;
7703;SDS011;3894;49.700;10.770;2023-03-23T06:49:04;5.07;;;1.65;;
7703;SDS011;3894;49.700;10.770;2023-03-23T06:51:30;4.85;;;1.00;;
7703;SDS011;3894;49.700;10.770;2023-03-23T06:53:55;6.85;;;1.63;;
7703;SDS011;3894;49.700;10.770;2023-03-23T06:56:22;6.15;;;1.25;;
7703;SDS011;3894;49.700;10.770;2023-03-23T06:58:48;4.82;;;1.08;;
7703;SDS011;3894;49.700;10.770;2023-03-23T07:01:14;7.85;;;1.63;;
7703;SDS011;3894;49.700;10.770;2023-03-23T07:03:40;5.38;;;1.35;;
7703;SDS011;3894;49.700;10.770;2023-03-23T07:06:07;5.43;;;1.23;;
7703;SDS011;3894;49.700;10.770;2023-03-23T07:08:33;5.55;;;1.38;;
7703;SDS011;3894;49.700;10.770;2023-03-23T07:11:00;5.10;;;1.17;;
7703;SDS011;3894;49.700;10.770;2023-03-23T07:13:25;4.45;;;1.15;;
7703;SDS011;3894;49.700;10.770;2023-03-23T07:15:51;5.47;;;1.15;;
7703;SDS011;3894;49.700;10.770;2023-03-23T07:18:17;4.70;;;1.10;;
7703;SDS011;3894;49.700;10.770;2023-03-23T07:20:43;5.50;;;0.98;;
7703;SDS011;3894;49.700;10.770;2023-03-23T07:23:12;4.53;;;1.25;;
7703;SDS011;3894;49.700;10.770;2023-03-23T07:25:38;4.90;;;1.25;;
7703;SDS011;3894;49.700;10.770;2023-03-23T07:28:03;3.78;;;0.77;;
7703;SDS011;3894;49.700;10.770;2023-03-23T07:30:29;6.53;;;1.45;;
7703;SDS011;3894;49.700;10.770;2023-03-23T07:32:58;4.13;;;0.90;;
7703;SDS011;3894;49.700;10.770;2023-03-23T07:35:24;4.22;;;1.10;;
7703;SDS011;3894;49.700;10.770;2023-03-23T07:37:50;4.60;;;0.95;;
7703;SDS011;3894;49.700;10.770;2023-03-23T07:40:17;5.53;;;1.73;;
7703;SDS011;3894;49.700;10.770;2023-03-23T07:42:46;6.78;;;3.15;;
7703;SDS011;3894;49.700;10.770;2023-03-23T07:45:17;6.72;;;3.33;;
7703;SDS011;3894;49.700;10.770;2023-03-23T07:47:43;7.30;;;2.78;;
7703;SDS011;3894;49.700;10.770;2023-03-23T07:50:09;5.10;;;1.98;;
7703;SDS011;3894;49.700;10.770;2023-03-23T07:52:35;7.78;;;3.53;;
7703;SDS011;3894;49.700;10.770;2023-03-23T07:55:01;8.55;;;3.38;;
7703;SDS011;3894;49.700;10.770;2023-03-23T07:57:29;9.73;;;4.78;;
7703;SDS011;3894;49.700;10.770;2023-03-23T07:59:55;10.38;;;3.20;;
7703;SDS011;3894;49.700;10.770;2023-03-23T08:02:22;9.32;;;3.97;;
7703;SDS011;3894;49.700;10.770;2023-03-23T08:04:49;9.15;;;3.60;;
7703;SDS011;3894;49.700;10.770;2023-03-23T08:07:15;5.75;;;1.92;;
7703;SDS011;3894;49.700;10.770;2023-03-23T08:09:42;8.23;;;2.40;;
7703;SDS011;3894;49.700;10.770;2023-03-23T08:12:08;13.15;;;5.15;;
7703;SDS011;3894;49.700;10.770;2023-03-23T08:14:35;16.15;;;5.95;;
7703;SDS011;3894;49.700;10.770;2023-03-23T08:17:00;10.90;;;4.30;;
7703;SDS011;3894;49.700;10.770;2023-03-23T08:19:26;8.25;;;3.08;;
7703;SDS011;3894;49.700;10.770;2023-03-23T08:21:52;5.60;;;1.80;;
7703;SDS011;3894;49.700;10.770;2023-03-23T08:24:18;6.85;;;2.00;;
7703;SDS011;3894;49.700;10.770;2023-03-23T08:26:44;4.13;;;1.58;;
7703;SDS011;3894;49.700;10.770;2023-03-23T08:29:10;6.65;;;1.30;;
7703;SDS011;3894;49.700;10.770;2023-03-23T08:31:37;7.35;;;1.80;;
7703;SDS011;3894;49.700;10.770;2023-03-23T08:34:04;5.57;;;2.47;;
7703;SDS011;3894;49.700;10.770;2023-03-23T08:36:34;6.18;;;1.98;;
7703;SDS011;3894;49.700;10.770;2023-03-23T08:39:02;5.35;;;1.52;;
7703;SDS011;3894;49.700;10.770;2023-03-23T08:41:30;5.78;;;1.70;;
7703;SDS011;3894;49.700;10.770;2023-03-23T08:43:56;5.88;;;1.88;;
7703;SDS011;3894;49.700;10.770;2023-03-23T08:46:22;5.88;;;1.60;;
7703;SDS011;3894;49.700;10.770;2023-03-23T08:48:48;6.55;;;1.67;;
7703;SDS011;3894;49.700;10.770;2023-03-23T08:51:14;5.28;;;2.25;;
7703;SDS011;3894;49.700;10.770;2023-03-23T08:53:40;7.25;;;2.28;;
7703;SDS011;3894;49.700;10.770;2023-03-23T08:56:07;4.50;;;1.73;;
7703;SDS011;3894;49.700;10.770;2023-03-23T08:58:35;6.15;;;1.80;;
7703;SDS011;3894;49.700;10.770;2023-03-23T09:01:05;6.28;;;2.20;;
7703;SDS011;3894;49.700;10.770;2023-03-23T09:03:32;5.65;;;1.92;;
7703;SDS011;3894;49.700;10.770;2023-03-23T09:06:00;5.05;;;1.40;;
7703;SDS011;3894;49.700;10.770;2023-03-23T09:08:27;4.90;;;1.42;;
7703;SDS011;3894;49.700;10.770;2023-03-23T09:10:54;4.63;;;1.13;;
7703;SDS011;3894;49.700;10.770;2023-03-23T09:13:23;6.78;;;1.58;;
7703;SDS011;3894;49.700;10.770;2023-03-23T09:15:49;4.30;;;1.30;;
7703;SDS011;3894;49.700;10.770;2023-03-23T09:18:16;5.07;;;1.08;;
7703;SDS011;3894;49.700;10.770;2023-03-23T09:20:42;5.07;;;1.50;;
7703;SDS011;3894;49.700;10.770;2023-03-23T09:23:08;5.65;;;1.92;;
7703;SDS011;3894;49.700;10.770;2023-03-23T09:25:34;5.22;;;1.20;;
7703;SDS011;3894;49.700;10.770;2023-03-23T09:28:00;5.28;;;1.60;;
7703;SDS011;3894;49.700;10.770;2023-03-23T09:30:27;4.00;;;1.20;;
7703;SDS011;3894;49.700;10.770;2023-03-23T09:32:55;4.13;;;1.13;;
7703;SDS011;3894;49.700;10.770;2023-03-23T09:35:21;4.90;;;1.00;;
7703;SDS011;3894;49.700;10.770;2023-03-23T09:37:49;4.68;;;1.60;;
7703;SDS011;3894;49.700;10.770;2023-03-23T09:40:26;5.05;;;1.77;;
7703;SDS011;3894;49.700;10.770;2023-03-23T09:43:04;5.30;;;2.58;;
7703;SDS011;3894;49.700;10.770;2023-03-23T09:48:07;4.40;;;1.27;;
7703;SDS011;3894;49.700;10.770;2023-03-23T09:50:55;4.85;;;1.33;;
7703;SDS011;3894;49.700;10.770;2023-03-23T09:53:42;5.45;;;1.25;;
7703;SDS011;3894;49.700;10.770;2023-03-23T09:56:12;3.30;;;0.60;;
7703;SDS011;3894;49.700;10.770;2023-03-23T09:59:02;2.50;;;0.57;;
7703;SDS011;3894;49.700;10.770;2023-03-23T10:01:57;3.78;;;1.27;;
7703;SDS011;3894;49.700;10.770;2023-03-23T10:04:48;2.72;;;0.40;;
7703;SDS011;3894;49.700;10.770;2023-03-23T10:07:17;3.38;;;0.70;;
7703;SDS011;3894;49.700;10.770;2023-03-23T10:09:50;4.15;;;0.80;;
7703;SDS011;3894;49.700;10.770;2023-03-23T10:22:52;3.42;;;0.73;;
7703;SDS011;3894;49.700;10.770;2023-03-23T10:25:45;3.55;;;1.00;;
7703;SDS011;3894;49.700;10.770;2023-03-23T10:31:00;10.00;;;3.80;;
7703;SDS011;3894;49.700;10.770;2023-03-23T10:41:12;6.05;;;0.80;;
7703;SDS011;3894;49.700;10.770;2023-03-23T10:43:40;3.20;;;0.45;;
7703;SDS011;3894;49.700;10.770;2023-03-23T10:46:20;2.83;;;0.40;;
7703;SDS011;3894;49.700;10.770;2023-03-23T10:49:27;5.35;;;1.40;;
7703;SDS011;3894;49.700;10.770;2023-03-23T10:52:07;2.75;;;1.25;;
7703;SDS011;3894;49.700;10.770;2023-03-23T10:54:52;5.65;;;1.60;;
7703;SDS011;3894;49.700;10.770;2023-03-23T10:57:28;3.70;;;0.90;;
7703;SDS011;3894;49.700;10.770;2023-03-23T10:59:59;10.70;;;8.02;;
7703;SDS011;3894;49.700;10.770;2023-03-23T11:02:30;14.55;;;8.57;;
7703;SDS011;3894;49.700;10.770;2023-03-23T11:04:59;5.28;;;2.33;;
7703;SDS011;3894;49.700;10.770;2023-03-23T11:07:30;4.15;;;1.50;;
7703;SDS011;3894;49.700;10.770;2023-03-23T11:10:03;6.05;;;1.85;;
7703;SDS011;3894;49.700;10.770;2023-03-23T11:12:43;7.82;;;2.38;;
7703;SDS011;3894;49.700;10.770;2023-03-23T11:15:18;4.85;;;0.85;;
7703;SDS011;3894;49.700;10.770;2023-03-23T11:17:54;4.55;;;1.30;;
7703;SDS011;3894;49.700;10.770;2023-03-23T11:20:22;2.92;;;0.65;;
7703;SDS011;3894;49.700;10.770;2023-03-23T11:22:47;3.83;;;0.60;;
7703;SDS011;3894;49.700;10.770;2023-03-23T11:25:13;3.92;;;0.60;;
7703;SDS011;3894;49.700;10.770;2023-03-23T11:27:39;7.78;;;0.65;;
7703;SDS011;3894;49.700;10.770;2023-03-23T11:30:25;4.30;;;0.80;;
7703;SDS011;3894;49.700;10.770;2023-03-23T11:32:52;4.65;;;0.70;;
7703;SDS011;3894;49.700;10.770;2023-03-23T11:35:21;3.55;;;0.73;;
7703;SDS011;3894;49.700;10.770;2023-03-23T11:37:52;2.38;;;0.50;;
7703;SDS011;3894;49.700;10.770;2023-03-23T11:40:24;5.13;;;1.38;;
7703;SDS011;3894;49.700;10.770;2023-03-23T11:50:57;4.60;;;1.10;;
7703;SDS011;3894;49.700;10.770;2023-03-23T11:59:02;4.40;;;1.20;;
7703;SDS011;3894;49.700;10.770;2023-03-23T12:33:02;4.97;;;1.60;;
7703;SDS011;3894;49.700;10.770;2023-03-23T12:41:41;6.97;;;2.47;;
7703;SDS011;3894;49.700;10.770;2023-03-23T12:44:29;5.95;;;1.95;;
7703;SDS011;3894;49.700;10.770;2023-03-23T12:50:13;6.13;;;2.17;;
7703;SDS011;3894;49.700;10.770;2023-03-23T12:55:42;7.13;;;2.67;;
7703;SDS011;3894;49.700;10.770;2023-03-23T12:58:22;6.82;;;1.77;;
7703;SDS011;3894;49.700;10.770;2023-03-23T13:09:19;4.05;;;1.05;;
7703;SDS011;3894;49.700;10.770;2023-03-23T13:11:51;4.38;;;1.20;;
7703;SDS011;3894;49.700;10.770;2023-03-23T13:17:21;4.32;;;1.45;;
7703;SDS011;3894;49.700;10.770;2023-03-23T13:25:02;3.95;;;0.98;;
7703;SDS011;3894;49.700;10.770;2023-03-23T13:27:34;4.65;;;1.30;;
7703;SDS011;3894;49.700;10.770;2023-03-23T13:30:00;5.10;;;1.40;;
7703;SDS011;3894;49.700;10.770;2023-03-23T13:32:33;3.90;;;1.02;;
7703;SDS011;3894;49.700;10.770;2023-03-23T13:35:05;4.47;;;1.00;;
7703;SDS011;3894;49.700;10.770;2023-03-23T13:37:40;3.55;;;0.88;;
7703;SDS011;3894;49.700;10.770;2023-03-23T13:42:46;2.45;;;0.40;;
7703;SDS011;3894;49.700;10.770;2023-03-23T13:47:48;2.28;;;0.40;;
7703;SDS011;3894;49.700;10.770;2023-03-23T13:52:49;3.00;;;0.57;;
7703;SDS011;3894;49.700;10.770;2023-03-23T14:03:01;3.30;;;0.85;;
7703;SDS011;3894;49.700;10.770;2023-03-23T14:05:39;2.90;;;0.75;;
7703;SDS011;3894;49.700;10.770;2023-03-23T14:08:21;2.95;;;0.88;;
7703;SDS011;3894;49.700;10.770;2023-03-23T14:10:58;4.43;;;1.20;;
7703;SDS011;3894;49.700;10.770;2023-03-23T14:13:42;4.95;;;1.85;;
7703;SDS011;3894;49.700;10.770;2023-03-23T14:16:22;6.10;;;2.08;;
7703;SDS011;3894;49.700;10.770;2023-03-23T14:18:56;6.10;;;2.22;;
7703;SDS011;3894;49.700;10.770;2023-03-23T14:21:34;4.45;;;1.58;;
7703;SDS011;3894;49.700;10.770;2023-03-23T14:24:05;5.72;;;1.90;;
7703;SDS011;3894;49.700;10.770;2023-03-23T14:26:37;4.32;;;0.93;;
7703;SDS011;3894;49.700;10.770;2023-03-23T14:29:03;6.00;;;1.33;;
7703;SDS011;3894;49.700;10.770;2023-03-23T14:31:31;4.47;;;1.13;;
7703;SDS011;3894;49.700;10.770;2023-03-23T14:34:02;3.70;;;2.22;;
7703;SDS011;3894;49.700;10.770;2023-03-23T14:36:31;5.18;;;0.85;;
7703;SDS011;3894;49.700;10.770;2023-03-23T14:41:34;3.13;;;0.65;;
7703;SDS011;3894;49.700;10.770;2023-03-23T14:44:02;2.33;;;0.40;;
7703;SDS011;3894;49.700;10.770;2023-03-23T14:46:30;2.50;;;0.40;;
7703;SDS011;3894;49.700;10.770;2023-03-23T14:49:00;2.17;;;0.45;;
7703;SDS011;3894;49.700;10.770;2023-03-23T14:51:28;4.40;;;0.80;;
7703;SDS011;3894;49.700;10.770;2023-03-23T14:53:55;3.08;;;0.60;;
7703;SDS011;3894;49.700;10.770;2023-03-23T14:58:52;3.88;;;0.60;;
7703;SDS011;3894;49.700;10.770;2023-03-23T15:01:26;3.50;;;0.75;;
7703;SDS011;3894;49.700;10.770;2023-03-23T15:04:06;3.72;;;0.70;;
7703;SDS011;3894;49.700;10.770;2023-03-23T15:06:36;3.67;;;1.17;;
7703;SDS011;3894;49.700;10.770;2023-03-23T15:11:31;5.80;;;1.55;;
7703;SDS011;3894;49.700;10.770;2023-03-23T15:14:07;4.80;;;0.93;;
7703;SDS011;3894;49.700;10.770;2023-03-23T15:16:47;4.07;;;1.30;;
7703;SDS011;3894;49.700;10.770;2023-03-23T15:19:40;6.82;;;1.10;;
7703;SDS011;3894;49.700;10.770;2023-03-23T15:24:40;4.88;;;1.35;;
7703;SDS011;3894;49.700;10.770;2023-03-23T15:29:55;4.70;;;0.90;;
7703;SDS011;3894;49.700;10.770;2023-03-23T15:32:23;7.10;;;1.00;;
7703;SDS011;3894;49.700;10.770;2023-03-23T15:34:54;14.25;;;5.28;;
7703;SDS011;3894;49.700;10.770;2023-03-23T15:37:32;10.82;;;3.58;;
7703;SDS011;3894;49.700;10.770;2023-03-23T15:40:04;4.28;;;0.75;;
7703;SDS011;3894;49.700;10.770;2023-03-23T15:42:31;7.20;;;2.42;;
7703;SDS011;3894;49.700;10.770;2023-03-23T15:50:12;5.90;;;1.45;;
7703;SDS011;3894;49.700;10.770;2023-03-23T15:52:38;4.25;;;0.95;;
7703;SDS011;3894;49.700;10.770;2023-03-23T15:55:26;5.88;;;1.40;;
7703;SDS011;3894;49.700;10.770;2023-03-23T15:57:54;7.22;;;1.00;;
7703;SDS011;3894;49.700;10.770;2023-03-23T16:00:25;4.68;;;0.70;;
7703;SDS011;3894;49.700;10.770;2023-03-23T16:02:57;3.10;;;0.50;;
7703;SDS011;3894;49.700;10.770;2023-03-23T16:05:25;5.72;;;0.90;;
7703;SDS011;3894;49.700;10.770;2023-03-23T16:07:57;5.47;;;1.20;;
7703;SDS011;3894;49.700;10.770;2023-03-23T16:10:26;4.45;;;0.73;;
7703;SDS011;3894;49.700;10.770;2023-03-23T16:12:55;5.82;;;0.98;;
7703;SDS011;3894;49.700;10.770;2023-03-23T16:15:33;4.47;;;1.10;;
7703;SDS011;3894;49.700;10.770;2023-03-23T16:17:59;4.25;;;1.13;;
7703;SDS011;3894;49.700;10.770;2023-03-23T16:20:27;7.80;;;2.35;;
7703;SDS011;3894;49.700;10.770;2023-03-23T16:22:54;4.35;;;1.90;;
7703;SDS011;3894;49.700;10.770;2023-03-23T16:25:20;4.75;;;2.00;;
7703;SDS011;3894;49.700;10.770;2023-03-23T16:27:46;5.70;;;2.83;;
7703;SDS011;3894;49.700;10.770;2023-03-23T16:30:24;5.95;;;2.42;;
7703;SDS011;3894;49.700;10.770;2023-03-23T16:32:54;4.78;;;2.05;;
7703;SDS011;3894;49.700;10.770;2023-03-23T16:35:20;5.63;;;2.30;;
7703;SDS011;3894;49.700;10.770;2023-03-23T16:37:47;6.75;;;4.68;;
7703;SDS011;3894;49.700;10.770;2023-03-23T16:40:16;7.32;;;3.70;;
7703;SDS011;3894;49.700;10.770;2023-03-23T16:47:35;5.53;;;1.90;;
7703;SDS011;3894;49.700;10.770;2023-03-23T16:50:01;7.07;;;2.90;;
7703;SDS011;3894;49.700;10.770;2023-03-23T16:52:30;8.32;;;2.50;;
7703;SDS011;3894;49.700;10.770;2023-03-23T16:54:59;7.38;;;2.72;;
7703;SDS011;3894;49.700;10.770;2023-03-23T16:57:25;8.65;;;3.60;;
7703;SDS011;3894;49.700;10.770;2023-03-23T16:59:51;7.40;;;3.78;;
7703;SDS011;3894;49.700;10.770;2023-03-23T17:02:17;8.50;;;3.15;;
7703;SDS011;3894;49.700;10.770;2023-03-23T17:04:44;7.80;;;3.53;;
7703;SDS011;3894;49.700;10.770;2023-03-23T17:07:13;8.38;;;3.63;;
7703;SDS011;3894;49.700;10.770;2023-03-23T17:09:41;7.38;;;3.55;;
7703;SDS011;3894;49.700;10.770;2023-03-23T17:12:11;12.75;;;5.45;;
7703;SDS011;3894;49.700;10.770;2023-03-23T17:14:38;9.48;;;3.95;;
7703;SDS011;3894;49.700;10.770;2023-03-23T17:17:06;11.73;;;5.57;;
7703;SDS011;3894;49.700;10.770;2023-03-23T17:19:32;16.08;;;6.78;;
7703;SDS011;3894;49.700;10.770;2023-03-23T17:22:00;16.92;;;7.63;;
7703;SDS011;3894;49.700;10.770;2023-03-23T17:24:27;9.25;;;4.10;;
7703;SDS011;3894;49.700;10.770;2023-03-23T17:26:54;6.68;;;3.65;;
7703;SDS011;3894;49.700;10.770;2023-03-23T17:29:20;9.15;;;4.85;;
7703;SDS011;3894;49.700;10.770;2023-03-23T17:31:49;8.50;;;4.68;;
7703;SDS011;3894;49.700;10.770;2023-03-23T17:34:16;6.43;;;2.80;;
7703;SDS011;3894;49.700;10.770;2023-03-23T17:36:42;8.00;;;3.28;;
7703;SDS011;3894;49.700;10.770;2023-03-23T17:39:08;5.95;;;2.47;;
7703;SDS011;3894;49.700;10.770;2023-03-23T17:41:40;6.22;;;2.20;;
7703;SDS011;3894;49.700;10.770;2023-03-23T17:44:06;6.85;;;2.30;;
7703;SDS011;3894;49.700;10.770;2023-03-23T17:46:34;7.25;;;3.22;;
7703;SDS011;3894;49.700;10.770;2023-03-23T17:49:00;6.05;;;2.38;;
7703;SDS011;3894;49.700;10.770;2023-03-23T17:51:26;5.47;;;2.00;;
7703;SDS011;3894;49.700;10.770;2023-03-23T17:53:52;6.07;;;2.42;;
7703;SDS011;3894;49.700;10.770;2023-03-23T17:56:18;5.35;;;2.05;;
7703;SDS011;3894;49.700;10.770;2023-03-23T17:58:43;5.88;;;2.05;;
7703;SDS011;3894;49.700;10.770;2023-03-23T18:01:09;7.03;;;3.50;;
7703;SDS011;3894;49.700;10.770;2023-03-23T18:03:35;7.53;;;2.60;;
7703;SDS011;3894;49.700;10.770;2023-03-23T18:06:02;9.27;;;4.50;;
7703;SDS011;3894;49.700;10.770;2023-03-23T18:08:32;7.60;;;3.42;;
7703;SDS011;3894;49.700;10.770;2023-03-23T18:10:58;9.65;;;4.95;;
7703;SDS011;3894;49.700;10.770;2023-03-23T18:13:25;11.32;;;5.47;;
7703;SDS011;3894;49.700;10.770;2023-03-23T18:15:52;7.93;;;4.10;;
7703;SDS011;3894;49.700;10.770;2023-03-23T18:18:20;8.75;;;4.38;;
7703;SDS011;3894;49.700;10.770;2023-03-23T18:20:46;12.27;;;6.13;;
7703;SDS011;3894;49.700;10.770;2023-03-23T18:23:12;10.30;;;5.70;;
7703;SDS011;3894;49.700;10.770;2023-03-23T18:25:38;9.07;;;5.13;;
7703;SDS011;3894;49.700;10.770;2023-03-23T18:28:04;9.27;;;4.38;;
7703;SDS011;3894;49.700;10.770;2023-03-23T18:30:31;9.73;;;6.30;;
7703;SDS011;3894;49.700;10.770;2023-03-23T18:32:58;13.85;;;9.10;;
7703;SDS011;3894;49.700;10.770;2023-03-23T18:35:24;11.18;;;6.60;;
7703;SDS011;3894;49.700;10.770;2023-03-23T18:37:50;10.10;;;5.57;;
7703;SDS011;3894;49.700;10.770;2023-03-23T18:40:15;11.63;;;5.43;;
7703;SDS011;3894;49.700;10.770;2023-03-23T18:42:43;9.82;;;5.38;;
7703;SDS011;3894;49.700;10.770;2023-03-23T18:45:09;10.05;;;5.85;;
7703;SDS011;3894;49.700;10.770;2023-03-23T18:47:36;10.32;;;6.00;;
7703;SDS011;3894;49.700;10.770;2023-03-23T18:50:03;10.77;;;6.40;;
7703;SDS011;3894;49.700;10.770;2023-03-23T18:52:31;11.45;;;5.50;;
7703;SDS011;3894;49.700;10.770;2023-03-23T18:55:00;10.52;;;5.65;;
7703;SDS011;3894;49.700;10.770;2023-03-23T18:57:28;9.48;;;5.25;;
7703;SDS011;3894;49.700;10.770;2023-03-23T18:59:54;12.13;;;4.93;;
7703;SDS011;3894;49.700;10.770;2023-03-23T19:02:20;13.80;;;5.43;;
7703;SDS011;3894;49.700;10.770;2023-03-23T19:04:46;10.75;;;5.13;;
7703;SDS011;3894;49.700;10.770;2023-03-23T19:07:13;10.38;;;4.20;;
7703;SDS011;3894;49.700;10.770;2023-03-23T19:09:40;8.00;;;4.22;;
7703;SDS011;3894;49.700;10.770;2023-03-23T19:12:08;9.63;;;4.25;;
7703;SDS011;3894;49.700;10.770;2023-03-23T19:14:35;9.02;;;3.92;;
7703;SDS011;3894;49.700;10.770;2023-03-23T19:17:03;8.85;;;4.00;;
7703;SDS011;3894;49.700;10.770;2023-03-23T19:19:37;8.52;;;4.95;;
7703;SDS011;3894;49.700;10.770;2023-03-23T19:22:05;11.90;;;7.18;;
7703;SDS011;3894;49.700;10.770;2023-03-23T19:24:31;11.63;;;6.75;;
7703;SDS011;3894;49.700;10.770;2023-03-23T19:26:58;11.73;;;6.65;;
7703;SDS011;3894;49.700;10.770;2023-03-23T19:29:23;20.58;;;10.93;;
7703;SDS011;3894;49.700;10.770;2023-03-23T19:31:50;15.98;;;7.70;;
7703;SDS011;3894;49.700;10.770;2023-03-23T19:34:17;12.60;;;6.95;;
7703;SDS011;3894;49.700;10.770;2023-03-23T19:36:42;16.45;;;7.28;;
7703;SDS011;3894;49.700;10.770;2023-03-23T19:39:08;12.20;;;5.28;;
7703;SDS011;3894;49.700;10.770;2023-03-23T19:41:35;14.75;;;6.50;;
7703;SDS011;3894;49.700;10.770;2023-03-23T19:44:01;17.33;;;6.45;;
7703;SDS011;3894;49.700;10.770;2023-03-23T19:46:28;13.52;;;5.60;;
7703;SDS011;3894;49.700;10.770;2023-03-23T19:48:54;12.80;;;4.85;;
7703;SDS011;3894;49.700;10.770;2023-03-23T19:51:21;12.98;;;6.20;;
7703;SDS011;3894;49.700;10.770;2023-03-23T19:53:47;12.57;;;5.68;;
7703;SDS011;3894;49.700;10.770;2023-03-23T19:56:14;13.50;;;7.07;;
7703;SDS011;3894;49.700;10.770;2023-03-23T19:58:45;14.40;;;7.97;;
7703;SDS011;3894;49.700;10.770;2023-03-23T20:01:16;10.38;;;5.22;;
7703;SDS011;3894;49.700;10.770;2023-03-23T20:03:43;10.63;;;5.03;;
7703;SDS011;3894;49.700;10.770;2023-03-23T20:06:10;10.45;;;6.43;;
7703;SDS011;3894;49.700;10.770;2023-03-23T20:08:39;9.82;;;5.65;;
7703;SDS011;3894;49.700;10.770;2023-03-23T20:11:09;10.43;;;5.72;;
7703;SDS011;3894;49.700;10.770;2023-03-23T20:13:39;12.05;;;5.65;;
7703;SDS011;3894;49.700;10.770;2023-03-23T20:16:12;11.77;;;5.93;;
7703;SDS011;3894;49.700;10.770;2023-03-23T20:18:39;12.02;;;5.75;;
7703;SDS011;3894;49.700;10.770;2023-03-23T20:21:06;9.00;;;4.93;;
7703;SDS011;3894;49.700;10.770;2023-03-23T20:23:34;9.95;;;5.28;;
7703;SDS011;3894;49.700;10.770;2023-03-23T20:26:07;9.60;;;5.63;;
7703;SDS011;3894;49.700;10.770;2023-03-23T20:28:38;9.55;;;5.78;;
7703;SDS011;3894;49.700;10.770;2023-03-23T20:33:39;9.35;;;4.75;;